createdAt,value
2018-04-07T00:01:15.310Z,101831.89
2018-04-07T00:03:43.870Z,101827.88
2018-04-07T00:06:12.606Z,101825.38
2018-04-07T00:08:41.269Z,101828.11
2018-04-07T00:11:10.202Z,101830.42
2018-04-07T00:13:39.676Z,101833.25
2018-04-07T00:16:08.613Z,101825.73
2018-04-07T00:18:37.242Z,101823.45
2018-04-07T00:21:05.954Z,101820.19
2018-04-07T00:23:34.866Z,101822.91
2018-04-07T00:26:03.584Z,101819.58
2018-04-07T00:28:32.257Z,101820.22
2018-04-07T00:31:01.160Z,101827.94
2018-04-07T00:33:29.999Z,101818.34
2018-04-07T00:35:58.545Z,101810.13
2018-04-07T00:38:27.349Z,101812.83
2018-04-07T00:40:56.069Z,101762.11
2018-04-07T00:43:25.341Z,101811.62
2018-04-07T00:45:54.020Z,101804.53
2018-04-07T00:48:22.615Z,101795.16
2018-04-07T00:50:51.313Z,101795.98
2018-04-07T00:53:19.953Z,101794.38
2018-04-07T00:55:48.537Z,101787.02
2018-04-07T00:58:17.105Z,101789.70
2018-04-07T01:00:45.636Z,101790.70
2018-04-07T01:03:14.173Z,101778.15
2018-04-07T01:05:42.701Z,101783.53
2018-04-07T01:08:11.254Z,101775.56
2018-04-07T01:10:40.033Z,101770.67
2018-04-07T01:13:08.717Z,101764.41
2018-04-07T01:15:37.228Z,101766.98
2018-04-07T01:18:05.683Z,101758.75
2018-04-07T01:20:37.261Z,101762.92
2018-04-07T01:23:05.744Z,101766.47
2018-04-07T01:25:34.245Z,101763.67
2018-04-07T01:28:02.793Z,101770.11
2018-04-07T01:30:31.421Z,101768.14
2018-04-07T01:32:59.905Z,101772.70
2018-04-07T01:35:28.677Z,101767.44
2018-04-07T01:37:57.348Z,101770.91
2018-04-07T01:40:25.940Z,101769.88
2018-04-07T01:42:54.486Z,101769.08
2018-04-07T01:45:23.161Z,101765.92
2018-04-07T01:47:51.888Z,101771.73
2018-04-07T01:50:20.408Z,101772.08
2018-04-07T01:52:48.880Z,101759.70
2018-04-07T01:55:17.571Z,101757.23
2018-04-07T01:57:46.262Z,101761.66
2018-04-07T02:00:14.935Z,101752.26
2018-04-07T02:02:43.908Z,101750.31
2018-04-07T02:05:12.560Z,101749.69
2018-04-07T02:07:41.457Z,101758.64
2018-04-07T02:10:10.280Z,101756.47
2018-04-07T02:12:38.965Z,101749.30
2018-04-07T02:15:07.472Z,101755.23
2018-04-07T02:17:36.491Z,101759.25
2018-04-07T02:20:05.072Z,101769.33
2018-04-07T02:25:00.924Z,101764.97
2018-04-07T02:27:29.530Z,101765.78
2018-04-07T02:29:58.089Z,101764.31
2018-04-07T02:32:26.603Z,101760.54
2018-04-07T02:34:55.445Z,101760.77
2018-04-07T02:37:24.233Z,101757.99
2018-04-07T02:39:52.696Z,101759.57
2018-04-07T02:42:21.296Z,101757.98
2018-04-07T02:44:49.749Z,101758.94
2018-04-07T02:47:18.423Z,101759.77
2018-04-07T02:49:47.428Z,101760.77
2018-04-07T02:52:16.304Z,101754.19
2018-04-07T02:54:44.954Z,101760.84
2018-04-07T02:57:13.526Z,101751.59
2018-04-07T02:59:42.369Z,101747.03
2018-04-07T03:02:10.941Z,101749.70
2018-04-07T03:04:39.417Z,101741.59
2018-04-07T03:07:07.996Z,101735.38
2018-04-07T03:09:36.563Z,101734.72
2018-04-07T03:12:05.260Z,101730.98
2018-04-07T03:14:33.749Z,101726.79
2018-04-07T03:17:02.341Z,101716.75
2018-04-07T03:19:30.826Z,101722.07
2018-04-07T03:21:59.343Z,101715.08
2018-04-07T03:24:27.822Z,101718.05
2018-04-07T03:26:56.753Z,101716.88
2018-04-07T03:29:25.252Z,101709.62
2018-04-07T03:32:53.043Z,101712.70
2018-04-07T03:35:21.562Z,101703.62
2018-04-07T03:37:50.373Z,101707.73
2018-04-07T03:40:18.906Z,101706.69
2018-04-07T03:42:47.413Z,101713.36
2018-04-07T03:45:16.049Z,101711.50
2018-04-07T03:47:44.692Z,101711.26
2018-04-07T03:50:13.396Z,101712.36
2018-04-07T03:52:41.957Z,101706.77
2018-04-07T03:55:10.601Z,101709.01
2018-04-07T03:57:39.203Z,101709.92
2018-04-07T04:03:18.638Z,101706.09
2018-04-07T04:05:48.230Z,101705.06
2018-04-07T04:08:17.274Z,101703.10
2018-04-07T04:10:46.437Z,101698.89
2018-04-07T04:13:15.469Z,101686.12
2018-04-07T04:15:44.676Z,101692.62
2018-04-07T04:18:13.452Z,101699.41
2018-04-07T04:20:42.721Z,101697.03
2018-04-07T04:23:11.869Z,101693.15
2018-04-07T04:25:41.109Z,101690.59
2018-04-07T04:28:10.051Z,101684.63
2018-04-07T04:30:39.114Z,101691.02
2018-04-07T04:33:08.213Z,101684.02
2018-04-07T04:35:37.753Z,101683.45
2018-04-07T04:38:07.048Z,101674.96
2018-04-07T04:40:36.082Z,101674.00
2018-04-07T04:43:05.445Z,101675.14
2018-04-07T04:45:34.971Z,101673.22
2018-04-07T04:48:03.937Z,101673.58
2018-04-07T04:50:33.593Z,101665.51
2018-04-07T04:53:02.868Z,101666.35
2018-04-07T04:55:31.991Z,101666.48
2018-04-07T04:58:01.162Z,101662.38
2018-04-07T05:00:31.702Z,101668.66
2018-04-07T05:03:00.415Z,101666.08
2018-04-07T05:05:29.797Z,101664.61
2018-04-07T05:07:59.331Z,101664.55
2018-04-07T05:10:28.745Z,101653.59
2018-04-07T05:12:57.898Z,101655.31
2018-04-07T05:15:27.305Z,101660.18
2018-04-07T05:17:56.150Z,101652.32
2018-04-07T05:20:25.682Z,101653.80
2018-04-07T05:22:55.056Z,101648.85
2018-04-07T05:25:24.274Z,101649.89
2018-04-07T05:27:53.533Z,101646.91
2018-04-07T05:30:23.105Z,101651.16
2018-04-07T05:32:52.250Z,101653.65
2018-04-07T05:35:21.204Z,101653.45
2018-04-07T05:37:50.521Z,101645.02
2018-04-07T05:40:19.781Z,101644.55
2018-04-07T05:42:48.742Z,101652.00
2018-04-07T05:45:18.339Z,101642.59
2018-04-07T05:47:47.427Z,101643.64
2018-04-07T05:50:16.795Z,101641.55
2018-04-07T05:52:45.743Z,101640.29
2018-04-07T05:55:19.427Z,101639.02
2018-04-07T05:57:48.503Z,101641.88
2018-04-07T06:00:17.954Z,101646.70
2018-04-07T06:02:47.450Z,101641.44
2018-04-07T06:05:16.336Z,101644.55
2018-04-07T06:07:45.625Z,101644.44
2018-04-07T06:10:14.909Z,101640.83
2018-04-07T06:12:44.211Z,101639.22
2018-04-07T06:15:13.514Z,101643.05
2018-04-07T06:17:42.695Z,101641.36
2018-04-07T06:20:12.517Z,101638.62
2018-04-07T06:22:41.759Z,101633.96
2018-04-07T06:25:10.986Z,101632.08
2018-04-07T06:27:39.798Z,101635.02
2018-04-07T06:30:09.238Z,101626.09
2018-04-07T06:32:38.711Z,101630.98
2018-04-07T06:35:07.930Z,101629.09
2018-04-07T06:37:37.345Z,101633.86
2018-04-07T06:40:06.507Z,101633.13
2018-04-07T06:42:35.514Z,101628.80
2018-04-07T06:45:04.517Z,101623.31
2018-04-07T06:47:33.815Z,101619.70
2018-04-07T06:50:02.926Z,101614.95
2018-04-07T06:52:31.834Z,101613.53
2018-04-07T06:55:01.107Z,101607.59
2018-04-07T06:57:29.978Z,101610.98
2018-04-07T06:59:59.294Z,101603.75
2018-04-07T07:02:28.747Z,101598.08
2018-04-07T07:04:58.088Z,101595.50
2018-04-07T07:07:27.803Z,101593.55
2018-04-07T07:09:56.627Z,101591.73
2018-04-07T07:12:25.906Z,101594.69
2018-04-07T07:14:55.506Z,101593.99
2018-04-07T07:17:24.611Z,101597.94
2018-04-07T07:19:53.703Z,101600.08
2018-04-07T07:22:22.899Z,101600.64
2018-04-07T07:24:52.173Z,101597.28
2018-04-07T07:27:22.802Z,101602.00
2018-04-07T07:29:52.142Z,101590.64
2018-04-07T07:32:21.538Z,101595.06
2018-04-07T07:34:50.827Z,101590.74
2018-04-07T07:37:20.000Z,101581.69
2018-04-07T07:39:49.026Z,101583.89
2018-04-07T07:42:18.383Z,101580.44
2018-04-07T07:44:47.822Z,101586.05
2018-04-07T07:47:17.174Z,101580.16
2018-04-07T07:49:46.215Z,101581.45
2018-04-07T07:52:15.400Z,101584.18
2018-04-07T07:54:44.694Z,101579.37
2018-04-07T07:57:15.220Z,101578.58
2018-04-07T07:59:44.354Z,101578.30
2018-04-07T08:02:13.586Z,101564.54
2018-04-07T08:04:42.658Z,101571.63
2018-04-07T08:07:11.914Z,101567.37
2018-04-07T08:09:41.746Z,101571.21
2018-04-07T08:12:12.269Z,101564.20
2018-04-07T08:14:41.741Z,101563.08
2018-04-07T08:17:11.300Z,101564.59
2018-04-07T08:19:40.447Z,101561.48
2018-04-07T08:22:09.660Z,101558.87
2018-04-07T08:24:39.214Z,101559.29
2018-04-07T08:27:09.549Z,101562.84
2018-04-07T08:29:38.669Z,101561.30
2018-04-07T08:32:08.558Z,101565.43
2018-04-07T08:34:37.842Z,101558.99
2018-04-07T08:37:07.299Z,101562.30
2018-04-07T08:39:36.682Z,101552.45
2018-04-07T08:42:06.128Z,101550.91
2018-04-07T08:44:35.509Z,101549.84
2018-04-07T08:47:04.926Z,101545.69
2018-04-07T08:49:34.275Z,101544.03
2018-04-07T08:52:03.509Z,101548.45
2018-04-07T08:54:32.564Z,101536.44
2018-04-07T08:57:02.335Z,101537.40
2018-04-07T08:59:31.408Z,101534.81
2018-04-07T09:02:00.764Z,101536.40
2018-04-07T09:04:30.151Z,101530.34
2018-04-07T09:06:59.935Z,101534.81
2018-04-07T09:09:28.849Z,101533.25
2018-04-07T09:11:57.818Z,101530.70
2018-04-07T09:14:26.978Z,101533.44
2018-04-07T09:16:57.302Z,101522.42
2018-04-07T09:19:26.170Z,101519.83
2018-04-07T09:21:55.791Z,101510.06
2018-04-07T09:24:25.823Z,101518.41
2018-04-07T09:26:55.218Z,101513.97
2018-04-07T09:29:25.280Z,101514.98
2018-04-07T09:31:55.055Z,101518.39
2018-04-07T09:34:25.230Z,101505.52
2018-04-07T09:36:55.255Z,101502.70
2018-04-07T09:39:24.583Z,101500.47
2018-04-07T09:41:54.219Z,101499.05
2018-04-07T09:44:24.463Z,101494.56
2018-04-07T09:46:54.030Z,101498.78
2018-04-07T09:49:23.295Z,101499.11
2018-04-07T09:51:52.360Z,101495.55
2018-04-07T09:54:21.443Z,101490.34
2018-04-07T09:56:50.431Z,101484.53
2018-04-07T09:59:19.334Z,101485.63
2018-04-07T10:01:48.613Z,101482.51
2018-04-07T10:04:18.573Z,101481.80
2018-04-07T10:06:47.957Z,101478.83
2018-04-07T10:09:17.731Z,101475.20
2018-04-07T10:11:47.175Z,101480.70
2018-04-07T10:14:16.428Z,101469.65
2018-04-07T10:16:46.031Z,101470.53
2018-04-07T10:19:15.188Z,101464.96
2018-04-07T10:21:44.298Z,101462.41
2018-04-07T10:24:13.862Z,101462.35
2018-04-07T10:26:43.390Z,101461.20
2018-04-07T10:29:12.600Z,101456.45
2018-04-07T10:31:41.422Z,101447.91
2018-04-07T10:34:10.739Z,101443.19
2018-04-07T10:36:39.861Z,101441.25
2018-04-07T10:39:09.898Z,101441.00
2018-04-07T10:41:39.262Z,101433.37
2018-04-07T10:44:08.667Z,101435.92
2018-04-07T10:46:37.941Z,101428.80
2018-04-07T10:49:06.761Z,101432.65
2018-04-07T10:51:39.664Z,101421.86
2018-04-07T10:54:08.758Z,101414.29
2018-04-07T10:56:38.095Z,101418.33
2018-04-07T10:59:07.082Z,101415.75
2018-04-07T11:01:37.541Z,101405.08
2018-04-07T11:04:07.386Z,101411.17
2018-04-07T11:06:45.713Z,101403.45
2018-04-07T11:09:15.803Z,101398.61
2018-04-07T11:11:45.194Z,101392.50
2018-04-07T11:14:14.425Z,101398.91
2018-04-07T11:16:43.731Z,101392.48
2018-04-07T11:19:12.725Z,101391.62
2018-04-07T11:21:41.750Z,101396.37
2018-04-07T11:24:10.858Z,101384.17
2018-04-07T11:26:39.821Z,101391.17
2018-04-07T11:29:09.211Z,101386.59
2018-04-07T11:31:38.538Z,101387.80
2018-04-07T11:34:07.895Z,101386.67
2018-04-07T11:36:37.056Z,101380.16
2018-04-07T11:39:06.401Z,101382.55
2018-04-07T11:41:35.633Z,101374.36
2018-04-07T11:44:05.706Z,101374.89
2018-04-07T11:46:34.818Z,101368.07
2018-04-07T11:49:07.019Z,101364.08
2018-04-07T11:51:36.746Z,101357.55
2018-04-07T11:54:05.660Z,101352.63
2018-04-07T11:56:35.760Z,101350.66
2018-04-07T11:59:04.822Z,101343.72
2018-04-07T12:01:36.287Z,101342.46
2018-04-07T12:04:05.649Z,101335.33
2018-04-07T12:06:35.060Z,101337.50
2018-04-07T12:09:04.226Z,101332.67
2018-04-07T12:11:33.763Z,101330.27
2018-04-07T12:14:02.852Z,101330.80
2018-04-07T12:16:32.278Z,101327.44
2018-04-07T12:19:01.451Z,101328.06
2018-04-07T12:21:30.767Z,101315.83
2018-04-07T12:23:59.907Z,101322.78
2018-04-07T12:26:28.942Z,101329.42
2018-04-07T12:28:58.503Z,101325.67
2018-04-07T12:31:27.616Z,101319.48
2018-04-07T12:33:57.379Z,101323.36
2018-04-07T12:36:26.712Z,101320.82
2018-04-07T12:38:55.955Z,101317.20
2018-04-07T12:41:25.401Z,101304.36
2018-04-07T12:43:55.502Z,101310.42
2018-04-07T12:46:25.141Z,101296.64
2018-04-07T12:48:56.259Z,101290.30
2018-04-07T12:51:25.497Z,101286.82
2018-04-07T12:53:55.309Z,101287.83
2018-04-07T12:56:25.020Z,101286.59
2018-04-07T12:58:55.620Z,101280.38
2018-04-07T13:01:24.710Z,101277.13
2018-04-07T13:03:53.904Z,101279.78
2018-04-07T13:06:24.067Z,101267.08
2018-04-07T13:08:53.250Z,101271.92
2018-04-07T13:11:22.510Z,101266.86
2018-04-07T13:13:51.827Z,101253.73
2018-04-07T13:16:21.240Z,101259.98
2018-04-07T13:18:50.527Z,101255.16
2018-04-07T13:21:19.872Z,101252.31
2018-04-07T13:23:48.922Z,101251.71
2018-04-07T13:26:17.835Z,101248.67
2018-04-07T13:28:47.845Z,101248.91
2018-04-07T13:31:16.875Z,101237.17
2018-04-07T13:33:46.295Z,101244.34
2018-04-07T13:36:16.270Z,101241.27
2018-04-07T13:38:45.439Z,101233.80
2018-04-07T13:41:14.494Z,101222.99
2018-04-07T13:43:43.927Z,101223.89
2018-04-07T13:46:13.242Z,101219.56
2018-04-07T13:48:42.340Z,101206.05
2018-04-07T13:51:11.279Z,101202.07
2018-04-07T13:53:40.690Z,101207.58
2018-04-07T13:56:10.043Z,101212.96
2018-04-07T13:58:40.057Z,101202.45
2018-04-07T14:01:09.505Z,101200.23
2018-04-07T14:03:38.738Z,101198.63
2018-04-07T14:06:09.862Z,101191.98
2018-04-07T14:08:39.482Z,101186.89
2018-04-07T14:11:08.715Z,101184.35
2018-04-07T14:13:37.752Z,101180.55
2018-04-07T14:16:06.786Z,101166.44
2018-04-07T14:18:35.712Z,101170.08
2018-04-07T14:21:05.186Z,101147.66
2018-04-07T14:23:34.498Z,101142.15
2018-04-07T14:26:03.915Z,101139.69
2018-04-07T14:28:33.273Z,101141.79
2018-04-07T14:31:02.752Z,101137.67
2018-04-07T14:33:32.077Z,101124.86
2018-04-07T14:36:01.303Z,101122.81
2018-04-07T14:38:30.861Z,101125.13
2018-04-07T14:41:00.039Z,101125.13
2018-04-07T14:43:29.559Z,101128.48
2018-04-07T14:45:58.839Z,101124.42
2018-04-07T14:48:27.903Z,101118.23
2018-04-07T14:50:57.751Z,101116.61
2018-04-07T14:53:26.819Z,101115.83
2018-04-07T14:55:56.318Z,101108.50
2018-04-07T14:58:26.451Z,101112.43
2018-04-07T15:00:55.664Z,101105.36
2018-04-07T15:03:24.917Z,101100.02
2018-04-07T15:05:54.699Z,101098.19
2018-04-07T15:08:23.763Z,101092.23
2018-04-07T15:10:54.029Z,101086.61
2018-04-07T15:13:23.023Z,101093.59
2018-04-07T15:15:52.106Z,101088.23
2018-04-07T15:18:21.394Z,101083.97
2018-04-07T15:20:50.703Z,101088.64
2018-04-07T15:23:20.036Z,101092.00
2018-04-07T15:25:49.646Z,101085.45
2018-04-07T15:28:19.510Z,101089.34
2018-04-07T15:30:52.787Z,101085.38
2018-04-07T15:33:21.971Z,101082.52
2018-04-07T15:35:51.128Z,101089.23
2018-04-07T15:38:21.812Z,101083.73
2018-04-07T15:40:51.211Z,101079.14
2018-04-07T15:43:20.561Z,101095.16
2018-04-07T15:45:51.517Z,101081.83
2018-04-07T15:48:21.473Z,101081.61
2018-04-07T15:50:50.354Z,101076.09
2018-04-07T15:53:19.952Z,101067.48
2018-04-07T15:55:49.570Z,101064.11
2018-04-07T15:58:18.701Z,101064.58
2018-04-07T16:00:48.143Z,101062.17
2018-04-07T16:03:17.353Z,101058.16
2018-04-07T16:05:47.264Z,101057.00
2018-04-07T16:08:16.697Z,101048.15
2018-04-07T16:10:47.196Z,101050.05
2018-04-07T16:13:16.649Z,101048.76
2018-04-07T16:15:46.211Z,101046.69
2018-04-07T16:18:16.199Z,101040.89
2018-04-07T16:20:47.015Z,101040.89
2018-04-07T16:23:16.946Z,101035.87
2018-04-07T16:25:46.335Z,101041.06
2018-04-07T16:28:16.348Z,101032.61
2018-04-07T16:30:45.747Z,101025.82
2018-04-07T16:33:14.656Z,101029.92
2018-04-07T16:35:43.911Z,101030.50
2018-04-07T16:38:13.489Z,101029.03
2018-04-07T16:40:42.676Z,101027.81
2018-04-07T16:43:12.859Z,101030.09
2018-04-07T16:45:42.340Z,101019.13
2018-04-07T16:48:11.466Z,101021.22
2018-04-07T16:50:40.624Z,101023.44
2018-04-07T16:53:09.903Z,101020.58
2018-04-07T16:55:38.918Z,101025.88
2018-04-07T16:58:13.264Z,101023.02
2018-04-07T17:00:43.470Z,101019.17
2018-04-07T17:03:13.684Z,101020.37
2018-04-07T17:05:43.103Z,101018.77
2018-04-07T17:08:13.047Z,101021.39
2018-04-07T17:10:42.395Z,101024.32
2018-04-07T17:13:11.668Z,101022.23
2018-04-07T17:15:40.663Z,101025.30
2018-04-07T17:18:10.222Z,101020.06
2018-04-07T17:20:39.423Z,101018.44
2018-04-07T17:23:08.880Z,101017.17
2018-04-07T17:25:38.113Z,101011.30
2018-04-07T17:28:07.586Z,101014.19
2018-04-07T17:30:37.935Z,101011.33
2018-04-07T17:33:07.240Z,101013.63
2018-04-07T17:35:36.761Z,101014.67
2018-04-07T17:38:06.774Z,101015.28
2018-04-07T17:40:36.227Z,101014.14
2018-04-07T17:43:05.312Z,101013.06
2018-04-07T17:45:36.136Z,101014.71
2018-04-07T17:48:05.828Z,101019.99
2018-04-07T17:50:35.270Z,101013.73
2018-04-07T17:53:04.312Z,101025.12
2018-04-07T17:55:33.597Z,101025.73
2018-04-07T17:58:03.003Z,101021.61
2018-04-07T18:00:34.113Z,101021.91
2018-04-07T18:03:04.866Z,101018.99
2018-04-07T18:05:35.024Z,101019.75
2018-04-07T18:08:04.135Z,101027.56
2018-04-07T18:10:33.225Z,101025.25
2018-04-07T18:13:02.757Z,101024.98
2018-04-07T18:15:32.213Z,101028.20
2018-04-07T18:18:01.430Z,101023.87
2018-04-07T18:20:30.823Z,101029.92
2018-04-07T18:23:00.187Z,101032.23
2018-04-07T18:25:29.411Z,101033.69
2018-04-07T18:27:59.804Z,101029.95
2018-04-07T18:30:29.190Z,101033.44
2018-04-07T18:32:59.542Z,101036.39
2018-04-07T18:36:35.596Z,101033.24
2018-04-07T18:39:07.019Z,101035.13
2018-04-07T18:41:36.278Z,101034.70
2018-04-07T18:44:05.394Z,101039.80
2018-04-07T18:46:35.228Z,101040.95
2018-04-07T18:49:04.350Z,101042.59
2018-04-07T18:51:36.222Z,101043.91
2018-04-07T18:54:05.430Z,101038.88
2018-04-07T18:56:35.220Z,101043.56
2018-04-07T18:59:06.392Z,101048.64
2018-04-07T19:01:35.944Z,101042.95
2018-04-07T19:04:06.342Z,101040.44
2018-04-07T19:06:37.542Z,101045.38
2018-04-07T19:09:07.432Z,101044.73
2018-04-07T19:11:37.093Z,101046.44
2018-04-07T19:14:07.843Z,101051.36
2018-04-07T19:16:37.569Z,101052.66
2018-04-07T19:19:06.601Z,101054.04
2018-04-07T19:21:36.122Z,101064.02
2018-04-07T19:24:06.529Z,101059.58
2018-04-07T19:26:35.851Z,101064.89
2018-04-07T19:29:06.031Z,101062.84
2018-04-07T19:31:36.528Z,101068.25
2018-04-07T19:34:06.010Z,101069.38
2018-04-07T19:36:36.611Z,101060.84
2018-04-07T19:39:06.374Z,101055.33
2018-04-07T19:41:36.269Z,101057.52
2018-04-07T19:44:06.317Z,101052.77
2018-04-07T19:46:36.514Z,101052.68
2018-04-07T19:49:07.455Z,101054.51
2018-04-07T19:51:39.482Z,101055.78
2018-04-07T19:54:09.627Z,101051.80
2018-04-07T19:56:39.807Z,101053.35
2018-04-07T19:59:10.817Z,101051.16
2018-04-07T20:01:40.286Z,101052.38
2018-04-07T20:04:09.449Z,101052.02
2018-04-07T20:06:38.667Z,101058.42
2018-04-07T20:09:07.602Z,101045.23
2018-04-07T20:11:38.378Z,101047.09
2018-04-07T20:14:07.702Z,101052.59
2018-04-07T20:16:37.215Z,101055.32
2018-04-07T20:19:06.544Z,101053.64
2018-04-07T20:21:35.607Z,101051.72
2018-04-07T20:24:04.703Z,101047.38
2018-04-07T20:26:33.749Z,101046.59
2018-04-07T20:29:02.901Z,101047.39
2018-04-07T20:31:32.120Z,101041.06
2018-04-07T20:34:01.357Z,101045.05
2018-04-07T20:36:30.381Z,101047.18
2018-04-07T20:39:00.056Z,101050.23
2018-04-07T20:41:29.335Z,101043.53
2018-04-07T20:43:59.425Z,101046.44
2018-04-07T20:46:29.066Z,101046.38
2018-04-07T20:48:58.489Z,101042.66
2018-04-07T20:51:27.546Z,101041.34
2018-04-07T20:53:56.606Z,101043.61
2018-04-07T20:56:26.730Z,101041.48
2018-04-07T20:58:56.470Z,101041.25
2018-04-07T21:01:26.926Z,101034.45
2018-04-07T21:03:56.968Z,101043.48
2018-04-07T21:06:26.272Z,101044.31
2018-04-07T21:08:56.242Z,101045.77
2018-04-07T21:11:25.867Z,101042.93
2018-04-07T21:13:55.977Z,101040.47
2018-04-07T21:16:26.549Z,101039.80
2018-04-07T21:18:55.622Z,101037.25
2018-04-07T21:21:31.546Z,101033.98
2018-04-07T21:24:01.127Z,101033.80
2018-04-07T21:26:30.583Z,101033.37
2018-04-07T21:29:00.782Z,101034.77
2018-04-07T21:31:30.203Z,101033.36
2018-04-07T21:34:03.707Z,101038.89
2018-04-07T21:36:33.335Z,101037.13
2018-04-07T21:39:02.534Z,101033.29
2018-04-07T21:41:32.572Z,101029.04
2018-04-07T21:44:02.301Z,101030.86
2018-04-07T21:46:32.627Z,101031.49
2018-04-07T21:49:05.867Z,101028.60
2018-04-07T21:51:35.832Z,101032.48
2018-04-07T21:54:06.335Z,101022.70
2018-04-07T21:56:35.595Z,101027.34
2018-04-07T21:59:05.522Z,101028.86
2018-04-07T22:01:35.102Z,101028.55
2018-04-07T22:04:06.178Z,101030.65
2018-04-07T22:06:36.462Z,101028.16
2018-04-07T22:09:06.526Z,101030.36
2018-04-07T22:11:36.118Z,101023.45
2018-04-07T22:14:08.104Z,101015.47
2018-04-07T22:16:37.968Z,101022.97
2018-04-07T22:19:07.253Z,101012.55
2018-04-07T22:21:36.845Z,101005.11
2018-04-07T22:24:06.101Z,101017.19
2018-04-07T22:26:35.088Z,101011.06
2018-04-07T22:29:05.073Z,101012.80
2018-04-07T22:31:34.512Z,101015.21
2018-04-07T22:34:03.417Z,101011.02
2018-04-07T22:36:32.802Z,101014.83
2018-04-07T22:39:01.963Z,101014.95
2018-04-07T22:41:31.394Z,101017.70
2018-04-07T22:44:00.511Z,101010.14
2018-04-07T22:46:29.623Z,101007.95
2018-04-07T22:48:58.935Z,101007.42
2018-04-07T22:51:28.031Z,101004.58
2018-04-07T22:53:57.390Z,101001.92
2018-04-07T22:56:26.902Z,101005.09
2018-04-07T22:58:57.470Z,101005.03
2018-04-07T23:02:40.629Z,100998.53
2018-04-07T23:05:10.379Z,101006.16
2018-04-07T23:07:39.257Z,100997.89
2018-04-07T23:10:09.530Z,100999.34
2018-04-07T23:12:38.885Z,101000.47
2018-04-07T23:15:08.354Z,101004.22
2018-04-07T23:17:37.385Z,100999.95
2018-04-07T23:20:07.566Z,101000.79
2018-04-07T23:22:37.035Z,101000.77
2018-04-07T23:25:06.955Z,100998.23
2018-04-07T23:27:36.307Z,101000.02
2018-04-07T23:30:05.640Z,101003.81
2018-04-07T23:32:35.371Z,101006.08
2018-04-07T23:35:05.565Z,101000.27
2018-04-07T23:37:34.713Z,100998.69
2018-04-07T23:40:04.009Z,100998.98
2018-04-07T23:42:33.108Z,101012.11
2018-04-07T23:45:02.230Z,101010.88
2018-04-07T23:47:32.118Z,101004.38
2018-04-07T23:50:00.990Z,100989.14
2018-04-07T23:52:30.082Z,100998.20
2018-04-07T23:54:59.455Z,100996.67
2018-04-07T23:57:28.999Z,100998.55
2018-04-07T23:59:57.953Z,100997.26
